Preview of NWS' New Version of Forecast
This preview is not operational and should not be used for support decisions.

Terminal Aerodrome Forecast (TAF)

Issued by National Weather Service (NWS)

                            
000
FTUS45 KBOI 192326
TAFMYL
TAF
KMYL 192326Z 2000/2024 21010KT P6SM SKC
     FM200300 VRB03KT P6SM SKC
     FM202000 20006KT P6SM SKC=